createdAt,value
2018-02-24T00:00:26.990Z,71.56
2018-02-24T00:01:26.937Z,71.28
2018-02-24T00:02:27.193Z,71.56
2018-02-24T00:03:26.838Z,71.94
2018-02-24T00:04:26.792Z,71.75
2018-02-24T00:05:26.739Z,72.03
2018-02-24T00:06:26.688Z,71.37
2018-02-24T00:07:26.638Z,71.37
2018-02-24T00:08:26.891Z,71.19
2018-02-24T00:09:26.538Z,71.47
2018-02-24T00:10:26.488Z,72.13
2018-02-24T00:11:26.436Z,72.03
2018-02-24T00:12:26.389Z,71.75
2018-02-24T00:13:26.389Z,72.13
2018-02-24T00:14:26.588Z,71.94
2018-02-24T00:15:26.240Z,72.03
2018-02-24T00:16:26.192Z,71.94
2018-02-24T00:17:26.137Z,72.03
2018-02-24T00:18:26.090Z,72.88
2018-02-24T00:19:26.039Z,72.79
2018-02-24T00:20:26.288Z,72.69
2018-02-24T00:21:25.943Z,72.51
2018-02-24T00:22:25.887Z,72.88
2018-02-24T00:23:25.838Z,72.88
2018-02-24T00:24:25.789Z,71.94
2018-02-24T00:25:25.739Z,71.84
2018-02-24T00:26:25.994Z,71.94
2018-02-24T00:27:25.642Z,72.03
2018-02-24T00:28:25.600Z,72.13
2018-02-24T00:29:25.641Z,72.22
2018-02-24T00:30:25.492Z,72.69
2018-02-24T00:31:25.441Z,71.94
2018-02-24T00:32:25.687Z,71.94
2018-02-24T00:33:25.337Z,71.84
2018-02-24T00:34:25.294Z,71.75
2018-02-24T00:35:25.288Z,71.56
2018-02-24T00:36:25.187Z,71.47
2018-02-24T00:37:25.136Z,72.03
2018-02-24T00:38:25.086Z,71.56
2018-02-24T00:39:25.340Z,72.13
2018-02-24T00:40:24.985Z,72.79
2018-02-24T00:41:24.990Z,72.60
2018-02-24T00:42:24.884Z,72.51
2018-02-24T00:43:24.838Z,72.51
2018-02-24T00:44:24.785Z,72.41
2018-02-24T00:45:24.736Z,72.60
2018-02-24T00:46:24.984Z,72.51
2018-02-24T00:47:24.634Z,72.79
2018-02-24T00:48:24.586Z,72.98
2018-02-24T00:49:24.535Z,73.07
2018-02-24T00:50:24.486Z,72.79
2018-02-24T00:51:24.434Z,73.17
2018-02-24T00:52:24.432Z,72.79
2018-02-24T00:53:24.634Z,72.79
2018-02-24T00:54:24.282Z,72.98
2018-02-24T00:55:24.231Z,72.98
2018-02-24T00:56:24.181Z,73.07
2018-02-24T00:57:24.134Z,73.17
2018-02-24T00:58:24.134Z,72.69
2018-02-24T00:59:24.036Z,72.98
2018-02-24T01:00:24.284Z,72.88
2018-02-24T01:01:23.933Z,73.17
2018-02-24T01:02:23.880Z,72.98
2018-02-24T01:03:23.836Z,73.55
2018-02-24T01:04:23.787Z,74.11
2018-02-24T01:05:23.734Z,73.74
2018-02-24T01:06:23.680Z,74.11
2018-02-24T01:07:23.931Z,74.11
2018-02-24T01:08:23.584Z,73.26
2018-02-24T01:09:23.529Z,73.45
2018-02-24T01:10:23.483Z,73.07
2018-02-24T01:11:23.428Z,73.55
2018-02-24T01:12:23.378Z,73.93
2018-02-24T01:13:23.331Z,74.21
2018-02-24T01:14:23.636Z,73.83
2018-02-24T01:15:23.228Z,74.02
2018-02-24T01:16:23.177Z,74.02
2018-02-24T01:17:23.133Z,73.55
2018-02-24T01:18:23.078Z,73.93
2018-02-24T01:19:23.027Z,73.83
2018-02-24T01:20:23.428Z,73.93
2018-02-24T01:21:22.927Z,73.93
2018-02-24T01:22:22.881Z,74.02
2018-02-24T01:23:22.826Z,74.49
2018-02-24T01:24:22.776Z,73.93
2018-02-24T01:25:22.726Z,74.49
2018-02-24T01:26:23.077Z,74.96
2018-02-24T01:27:22.625Z,74.49
2018-02-24T01:28:22.574Z,73.55
2018-02-24T01:29:22.527Z,74.40
2018-02-24T01:30:22.475Z,74.96
2018-02-24T01:31:22.424Z,74.87
2018-02-24T01:32:22.675Z,74.87
2018-02-24T01:33:22.331Z,74.68
2018-02-24T01:34:22.273Z,74.68
2018-02-24T01:35:22.223Z,74.77
2018-02-24T01:36:22.173Z,74.58
2018-02-24T01:37:22.173Z,74.49
2018-02-24T01:38:22.371Z,74.49
2018-02-24T01:39:22.022Z,74.40
2018-02-24T01:40:21.972Z,74.87
2018-02-24T01:41:21.921Z,74.77
2018-02-24T01:42:21.872Z,74.68
2018-02-24T01:43:21.873Z,74.96
2018-02-24T01:44:22.074Z,74.77
2018-02-24T01:45:21.719Z,75.15
2018-02-24T01:46:21.670Z,74.49
2018-02-24T01:47:21.619Z,74.87
2018-02-24T01:48:21.568Z,74.68
2018-02-24T01:49:21.518Z,74.87
2018-02-24T01:50:21.467Z,75.53
2018-02-24T01:51:21.717Z,75.62
2018-02-24T01:52:21.367Z,75.90
2018-02-24T01:53:21.317Z,76.09
2018-02-24T01:54:21.267Z,76.00
2018-02-24T01:55:21.220Z,75.71
2018-02-24T01:56:21.166Z,75.71
2018-02-24T01:57:21.116Z,75.62
2018-02-24T01:58:21.366Z,75.81
2018-02-24T01:59:21.015Z,75.53
2018-02-24T02:00:20.966Z,75.71
2018-02-24T02:01:20.915Z,76.09
2018-02-24T02:02:20.863Z,75.71
2018-02-24T02:03:20.814Z,75.90
2018-02-24T02:04:20.763Z,75.71
2018-02-24T02:05:21.114Z,75.71
2018-02-24T02:06:20.663Z,75.71
2018-02-24T02:07:20.613Z,76.28
2018-02-24T02:08:20.563Z,75.62
2018-02-24T02:09:20.522Z,75.71
2018-02-24T02:10:20.464Z,75.43
2018-02-24T02:11:20.562Z,75.62
2018-02-24T02:12:20.660Z,75.62
2018-02-24T02:13:20.489Z,75.90
2018-02-24T02:14:20.259Z,75.71
2018-02-24T02:15:20.209Z,75.62
2018-02-24T02:16:20.159Z,75.81
2018-02-24T02:17:20.119Z,76.38
2018-02-24T02:18:20.058Z,76.09
2018-02-24T02:19:20.307Z,76.00
2018-02-24T02:20:19.961Z,76.38
2018-02-24T02:21:19.908Z,76.66
2018-02-24T02:22:19.905Z,76.57
2018-02-24T02:23:19.809Z,76.85
2018-02-24T02:24:19.754Z,76.66
2018-02-24T02:25:20.005Z,76.85
2018-02-24T02:26:19.654Z,76.66
2018-02-24T02:27:19.602Z,76.57
2018-02-24T02:28:19.601Z,76.47
2018-02-24T02:29:19.504Z,76.38
2018-02-24T02:30:19.453Z,76.09
2018-02-24T02:31:19.703Z,76.38
2018-02-24T02:32:19.352Z,76.28
2018-02-24T02:33:19.303Z,76.47
2018-02-24T02:34:19.301Z,76.09
2018-02-24T02:35:19.202Z,76.09
2018-02-24T02:36:19.150Z,75.81
2018-02-24T02:37:19.400Z,75.71
2018-02-24T02:38:19.049Z,75.81
2018-02-24T02:39:18.999Z,76.00
2018-02-24T02:40:18.947Z,76.00
2018-02-24T02:41:18.899Z,76.28
2018-02-24T02:42:18.846Z,76.38
2018-02-24T02:43:19.100Z,76.76
2018-02-24T02:44:18.747Z,76.76
2018-02-24T02:45:18.697Z,77.13
2018-02-24T02:46:18.647Z,76.57
2018-02-24T02:47:18.595Z,76.85
2018-02-24T02:48:18.545Z,76.76
2018-02-24T02:49:18.794Z,77.13
2018-02-24T02:50:18.444Z,77.13
2018-02-24T02:51:18.392Z,77.42
2018-02-24T02:52:18.342Z,77.04
2018-02-24T02:53:18.296Z,77.42
2018-02-24T02:54:18.248Z,76.66
2018-02-24T02:55:18.298Z,77.51
2018-02-24T02:56:18.440Z,77.51
2018-02-24T02:57:18.091Z,77.51
2018-02-24T02:58:18.040Z,77.42
2018-02-24T02:59:17.987Z,77.42
2018-02-24T03:00:17.939Z,77.32
2018-02-24T03:01:17.939Z,77.32
2018-02-24T03:02:17.842Z,77.23
2018-02-24T03:03:18.087Z,77.42
2018-02-24T03:04:17.740Z,77.42
2018-02-24T03:05:17.686Z,78.08
2018-02-24T03:06:17.633Z,77.70
2018-02-24T03:07:17.582Z,77.80
2018-02-24T03:08:17.536Z,77.51
2018-02-24T03:09:17.483Z,77.70
2018-02-24T03:10:17.733Z,77.70
2018-02-24T03:11:17.382Z,77.32
2018-02-24T03:12:17.331Z,78.08
2018-02-24T03:13:17.281Z,77.70
2018-02-24T03:14:17.228Z,77.98
2018-02-24T03:15:17.182Z,77.89
2018-02-24T03:16:17.132Z,77.80
2018-02-24T03:17:17.445Z,77.70
2018-02-24T03:18:17.028Z,77.80
2018-02-24T03:19:16.976Z,77.61
2018-02-24T03:20:16.930Z,77.98
2018-02-24T03:21:16.876Z,78.32
2018-02-24T03:22:16.825Z,78.36
2018-02-24T03:23:16.780Z,78.27
2018-02-24T03:24:17.024Z,77.75
2018-02-24T03:25:16.675Z,77.89
2018-02-24T03:26:16.628Z,77.98
2018-02-24T03:27:16.577Z,77.85
2018-02-24T03:28:16.522Z,78.32
2018-02-24T03:29:16.571Z,78.60
2018-02-24T03:30:16.425Z,78.23
2018-02-24T03:31:16.673Z,78.51
2018-02-24T03:32:16.319Z,78.23
2018-02-24T03:33:16.269Z,78.32
2018-02-24T03:34:16.218Z,78.89
2018-02-24T03:35:16.170Z,78.74
2018-02-24T03:36:16.120Z,78.42
2018-02-24T03:37:16.366Z,78.74
2018-02-24T03:38:16.015Z,78.45
2018-02-24T03:39:15.965Z,78.92
2018-02-24T03:40:15.918Z,78.45
2018-02-24T03:41:15.870Z,78.13
2018-02-24T03:42:15.814Z,78.23
2018-02-24T03:43:16.062Z,78.79
2018-02-24T03:44:15.712Z,78.60
2018-02-24T03:45:15.662Z,78.60
2018-02-24T03:46:15.608Z,77.94
2018-02-24T03:47:15.558Z,78.32
2018-02-24T03:48:15.512Z,78.27
2018-02-24T03:49:15.757Z,78.32
2018-02-24T03:50:15.458Z,78.23
2018-02-24T03:51:15.359Z,78.32
2018-02-24T03:52:15.309Z,78.13
2018-02-24T03:53:15.258Z,78.13
2018-02-24T03:54:15.204Z,78.32
2018-02-24T03:55:15.456Z,78.13
2018-02-24T03:56:15.153Z,78.32
2018-02-24T03:57:15.053Z,78.23
2018-02-24T03:58:15.003Z,78.23
2018-02-24T03:59:14.964Z,78.42
2018-02-24T04:00:14.900Z,78.23
2018-02-24T04:01:15.148Z,79.17
2018-02-24T04:02:14.797Z,79.55
2018-02-24T04:03:14.749Z,79.27
2018-02-24T04:04:14.700Z,78.98
2018-02-24T04:05:14.646Z,78.79
2018-02-24T04:06:14.595Z,78.70
2018-02-24T04:07:14.549Z,78.60
2018-02-24T04:08:14.797Z,78.60
2018-02-24T04:09:14.443Z,78.89
2018-02-24T04:10:14.394Z,79.17
2018-02-24T04:11:14.343Z,79.08
2018-02-24T04:12:14.291Z,79.08
2018-02-24T04:13:14.240Z,79.36
2018-02-24T04:14:14.264Z,79.46
2018-02-24T04:15:14.436Z,79.17
2018-02-24T04:16:14.092Z,79.55
2018-02-24T04:17:14.045Z,79.46
2018-02-24T04:18:15.186Z,79.64
2018-02-24T04:19:14.268Z,79.08
2018-02-24T04:20:13.889Z,79.64
2018-02-24T04:21:13.838Z,79.64
2018-02-24T04:22:14.089Z,79.83
2018-02-24T04:23:13.732Z,79.08
2018-02-24T04:24:13.682Z,78.98
2018-02-24T04:25:13.632Z,79.83
2018-02-24T04:26:13.580Z,78.98
2018-02-24T04:27:13.531Z,79.08
2018-02-24T04:28:13.476Z,79.27
2018-02-24T04:29:13.728Z,79.46
2018-02-24T04:30:13.378Z,79.36
2018-02-24T04:31:13.326Z,79.64
2018-02-24T04:32:13.278Z,79.55
2018-02-24T04:33:13.227Z,78.89
2018-02-24T04:34:13.206Z,79.08
2018-02-24T04:35:13.122Z,79.46
2018-02-24T04:36:13.374Z,79.36
2018-02-24T04:37:13.026Z,79.36
2018-02-24T04:38:12.975Z,79.46
2018-02-24T04:39:12.921Z,79.27
2018-02-24T04:40:12.870Z,79.64
2018-02-24T04:41:12.820Z,79.17
2018-02-24T04:42:13.067Z,79.17
2018-02-24T04:43:12.717Z,78.89
2018-02-24T04:44:12.665Z,79.27
2018-02-24T04:45:12.621Z,79.27
2018-02-24T04:46:12.563Z,79.64
2018-02-24T04:47:12.513Z,78.89
2018-02-24T04:48:12.764Z,79.17
2018-02-24T04:49:12.419Z,79.27
2018-02-24T04:50:12.365Z,79.64
2018-02-24T04:51:12.315Z,79.27
2018-02-24T04:52:12.259Z,79.27
2018-02-24T04:53:12.209Z,79.55
2018-02-24T04:54:12.458Z,79.08
2018-02-24T04:55:12.108Z,79.08
2018-02-24T04:56:12.055Z,79.08
2018-02-24T04:57:12.006Z,78.98
2018-02-24T04:58:11.963Z,79.08
2018-02-24T04:59:11.905Z,79.17
2018-02-24T05:00:12.154Z,79.27
2018-02-24T05:01:11.805Z,79.08
2018-02-24T05:02:11.750Z,79.46
2018-02-24T05:03:11.701Z,79.27
2018-02-24T05:04:11.650Z,79.36
2018-02-24T05:05:11.598Z,79.55
2018-02-24T05:06:11.846Z,79.74
2018-02-24T05:07:11.496Z,79.17
2018-02-24T05:08:11.444Z,79.17
2018-02-24T05:09:11.398Z,79.27
2018-02-24T05:10:11.343Z,79.27
2018-02-24T05:11:11.292Z,79.27
2018-02-24T05:12:11.242Z,79.17
2018-02-24T05:13:11.492Z,78.98
2018-02-24T05:14:11.139Z,79.08
2018-02-24T05:15:11.100Z,79.64
2018-02-24T05:16:11.039Z,79.36
2018-02-24T05:17:10.987Z,79.55
2018-02-24T05:18:10.942Z,78.70
2018-02-24T05:19:11.034Z,79.27
2018-02-24T05:20:11.135Z,78.51
2018-02-24T05:21:10.785Z,78.70
2018-02-24T05:22:10.732Z,78.70
2018-02-24T05:23:10.680Z,78.23
2018-02-24T05:24:10.632Z,78.70
2018-02-24T05:25:10.580Z,79.36
2018-02-24T05:26:10.526Z,79.64
2018-02-24T05:27:10.776Z,79.46
2018-02-24T05:28:10.427Z,79.17
2018-02-24T05:29:10.374Z,79.27
2018-02-24T05:30:10.325Z,78.60
2018-02-24T05:31:10.275Z,78.60
2018-02-24T05:32:10.225Z,78.70
2018-02-24T05:33:10.173Z,78.70
2018-02-24T05:34:10.424Z,78.32
2018-02-24T05:35:10.073Z,78.51
2018-02-24T05:36:10.018Z,78.42
2018-02-24T05:37:09.967Z,78.89
2018-02-24T05:38:09.917Z,79.46
2018-02-24T05:39:09.867Z,79.55
2018-02-24T05:40:09.819Z,79.46
2018-02-24T05:41:10.064Z,79.27
2018-02-24T05:42:09.713Z,79.08
2018-02-24T05:43:09.660Z,79.46
2018-02-24T05:44:09.613Z,79.46
2018-02-24T05:45:09.559Z,79.17
2018-02-24T05:46:09.507Z,79.08
2018-02-24T05:47:09.457Z,79.08
2018-02-24T05:48:09.707Z,79.27
2018-02-24T05:49:09.357Z,79.08
2018-02-24T05:50:09.303Z,79.36
2018-02-24T05:51:09.305Z,79.17
2018-02-24T05:52:09.219Z,79.83
2018-02-24T05:53:09.152Z,79.74
2018-02-24T05:54:09.402Z,79.36
2018-02-24T05:55:09.048Z,79.46
2018-02-24T05:56:08.997Z,79.55
2018-02-24T05:57:08.997Z,79.93
2018-02-24T05:58:08.896Z,80.02
2018-02-24T05:59:08.845Z,80.02
2018-02-24T06:00:09.096Z,79.93
2018-02-24T06:01:08.760Z,80.02
2018-02-24T06:02:08.694Z,80.02
2018-02-24T06:03:08.640Z,79.83
2018-02-24T06:04:08.590Z,80.11
2018-02-24T06:05:08.544Z,79.93
2018-02-24T06:06:08.788Z,80.11
2018-02-24T06:07:08.437Z,80.40
2018-02-24T06:08:08.387Z,80.58
2018-02-24T06:09:08.337Z,80.58
2018-02-24T06:10:08.288Z,80.30
2018-02-24T06:11:08.233Z,80.49
2018-02-24T06:12:08.482Z,80.68
2018-02-24T06:13:08.131Z,80.87
2018-02-24T06:14:08.081Z,81.15
2018-02-24T06:15:08.026Z,80.87
2018-02-24T06:16:07.977Z,81.24
2018-02-24T06:17:07.927Z,81.34
2018-02-24T06:18:07.882Z,81.43
2018-02-24T06:19:08.126Z,80.96
2018-02-24T06:20:07.773Z,81.15
2018-02-24T06:21:07.723Z,81.34
2018-02-24T06:22:07.669Z,81.05
2018-02-24T06:23:07.671Z,81.43
2018-02-24T06:24:07.569Z,81.53
2018-02-24T06:25:07.521Z,81.43
2018-02-24T06:26:07.768Z,81.53
2018-02-24T06:27:07.416Z,81.43
2018-02-24T06:28:07.366Z,81.43
2018-02-24T06:29:07.418Z,81.72
2018-02-24T06:30:07.268Z,81.72
2018-02-24T06:31:07.217Z,81.43
2018-02-24T06:32:07.263Z,81.43
2018-02-24T06:33:07.416Z,81.53
2018-02-24T06:34:07.058Z,81.15
2018-02-24T06:35:07.143Z,81.53
2018-02-24T06:36:06.957Z,81.43
2018-02-24T06:37:06.908Z,81.43
2018-02-24T06:38:06.854Z,81.53
2018-02-24T06:39:07.144Z,81.62
2018-02-24T06:40:07.547Z,81.53
2018-02-24T06:41:06.701Z,81.05
2018-02-24T06:42:06.649Z,81.24
2018-02-24T06:43:06.602Z,81.24
2018-02-24T06:44:06.597Z,81.72
2018-02-24T06:45:06.499Z,81.53
2018-02-24T06:46:06.446Z,81.62
2018-02-24T06:47:06.697Z,81.24
2018-02-24T06:48:06.345Z,81.05
2018-02-24T06:49:06.394Z,80.87
2018-02-24T06:50:06.492Z,80.77
2018-02-24T06:51:06.193Z,80.87
2018-02-24T06:52:06.518Z,80.58
2018-02-24T06:53:06.295Z,80.02
2018-02-24T06:54:06.340Z,79.74
2018-02-24T06:55:05.990Z,79.83
2018-02-24T06:56:06.241Z,80.11
2018-02-24T06:57:05.905Z,80.02
2018-02-24T06:58:05.840Z,79.83
2018-02-24T06:59:05.785Z,79.83
2018-02-24T07:00:06.032Z,80.21
2018-02-24T07:02:05.683Z,79.74
2018-02-24T07:03:05.585Z,79.64
2018-02-24T07:04:06.573Z,79.36
2018-02-24T07:05:05.482Z,79.27
2018-02-24T07:06:05.730Z,79.55
2018-02-24T07:07:05.379Z,79.64
2018-02-24T07:08:05.372Z,79.27
2018-02-24T07:09:06.314Z,79.68
2018-02-24T07:10:05.233Z,79.59
2018-02-24T07:11:06.270Z,79.02
2018-02-24T07:12:05.428Z,79.40
2018-02-24T07:13:05.078Z,78.74
2018-02-24T07:14:05.033Z,78.27
2018-02-24T07:15:04.975Z,78.17
2018-02-24T07:16:04.923Z,78.17
2018-02-24T07:17:04.875Z,78.17
2018-02-24T07:18:05.222Z,77.89
2018-02-24T07:19:04.770Z,78.08
2018-02-24T07:20:04.922Z,77.70
2018-02-24T07:21:04.673Z,77.61
2018-02-24T07:22:04.617Z,77.98
2018-02-24T07:23:04.669Z,77.32
2018-02-24T07:24:04.819Z,77.42
2018-02-24T07:25:04.468Z,76.76
2018-02-24T07:26:04.425Z,76.57
2018-02-24T07:27:04.367Z,76.57
2018-02-24T07:28:04.317Z,76.95
2018-02-24T07:29:04.267Z,76.28
2018-02-24T07:30:04.217Z,75.71
2018-02-24T07:31:04.489Z,74.53
2018-02-24T07:32:04.116Z,71.45
2018-02-24T07:33:04.170Z,69.18
2018-02-24T07:34:04.018Z,67.51
2018-02-24T07:35:03.968Z,66.19
2018-02-24T07:36:04.217Z,64.67
2018-02-24T07:37:03.866Z,63.95
2018-02-24T07:38:04.117Z,63.20
2018-02-24T07:39:03.771Z,61.80
2018-02-24T07:40:03.725Z,60.89
2018-02-24T07:41:03.673Z,59.12
2018-02-24T07:42:03.727Z,59.91
2018-02-24T07:43:03.951Z,59.72
2018-02-24T07:44:03.731Z,59.34
2018-02-24T07:45:03.788Z,58.90
2018-02-24T07:46:03.437Z,58.81
2018-02-24T07:47:03.397Z,58.07
2018-02-24T07:48:03.348Z,57.60
2018-02-24T07:49:03.754Z,55.80
2018-02-24T07:50:03.307Z,54.28
2018-02-24T07:51:03.212Z,53.91
2018-02-24T07:52:03.469Z,54.41
2018-02-24T07:53:03.126Z,53.81
2018-02-24T07:54:03.080Z,52.77
2018-02-24T07:55:04.259Z,52.65
2018-02-24T07:57:02.954Z,52.84
2018-02-24T07:58:02.958Z,53.91
2018-02-24T07:59:03.766Z,54.79
2018-02-24T08:00:02.829Z,52.58
2018-02-24T08:01:03.427Z,53.15
2018-02-24T08:02:02.739Z,52.58
2018-02-24T08:03:02.696Z,52.87
2018-02-24T08:04:02.654Z,52.77
2018-02-24T08:05:02.613Z,52.98
2018-02-24T08:06:02.868Z,51.82
2018-02-24T08:07:02.525Z,52.48
2018-02-24T08:08:02.483Z,52.61
2018-02-24T08:09:02.451Z,51.28
2018-02-24T08:10:02.407Z,50.93
2018-02-24T08:11:02.356Z,50.36
2018-02-24T08:12:02.616Z,49.01
2018-02-24T08:13:02.276Z,49.86
2018-02-24T08:14:02.232Z,49.88
2018-02-24T08:15:02.192Z,49.53
2018-02-24T08:16:02.151Z,49.05
2018-02-24T08:17:02.111Z,47.53
2018-02-24T08:18:02.366Z,46.90
2018-02-24T08:19:02.030Z,46.88
2018-02-24T08:20:01.993Z,48.61
2018-02-24T08:21:02.152Z,46.80
2018-02-24T08:22:01.907Z,46.99
2018-02-24T08:23:01.868Z,46.73
2018-02-24T08:24:02.124Z,45.95
2018-02-24T08:25:01.787Z,47.25
2018-02-24T08:26:01.751Z,48.80
2018-02-24T08:27:01.807Z,47.73
2018-02-24T08:28:01.664Z,48.70
2018-02-24T08:29:01.626Z,46.99
2018-02-24T08:30:01.885Z,46.11
2018-02-24T08:31:01.547Z,46.99
2018-02-24T08:32:01.510Z,46.25
2018-02-24T08:33:01.516Z,46.06
2018-02-24T08:34:01.428Z,46.42
2018-02-24T08:35:01.388Z,47.16
2018-02-24T08:36:01.652Z,47.66
2018-02-24T08:37:01.310Z,48.70
2018-02-24T08:38:01.272Z,48.56
2018-02-24T08:39:01.234Z,49.05
2018-02-24T08:40:01.195Z,50.05
2018-02-24T08:41:01.160Z,52.20
2018-02-24T08:42:01.114Z,53.91
2018-02-24T08:43:01.378Z,54.45
2018-02-24T08:44:01.041Z,57.10
2018-02-24T08:45:01.006Z,57.48
2018-02-24T08:46:00.956Z,57.48
2018-02-24T08:47:00.921Z,58.24
2018-02-24T08:48:00.877Z,58.62
2018-02-24T08:49:00.833Z,59.38
2018-02-24T08:50:01.106Z,59.84
2018-02-24T08:51:00.753Z,60.86
2018-02-24T08:52:00.711Z,61.71
2018-02-24T08:53:00.675Z,62.34
2018-02-24T08:54:00.628Z,63.85
2018-02-24T08:55:00.587Z,64.64
2018-02-24T08:56:00.544Z,65.50
2018-02-24T08:57:00.804Z,65.09
2018-02-24T08:58:00.506Z,65.47
2018-02-24T08:59:00.418Z,66.50
2018-02-24T09:00:00.378Z,66.60
2018-02-24T09:01:00.332Z,67.55
2018-02-24T09:02:00.288Z,66.53
2018-02-24T09:03:00.244Z,66.16
2018-02-24T09:04:00.603Z,65.21
2018-02-24T09:05:00.156Z,65.69
2018-02-24T09:06:00.115Z,65.56
2018-02-24T09:07:00.125Z,66.31
2018-02-24T09:08:00.028Z,66.22
2018-02-24T09:08:59.982Z,67.07
2018-02-24T09:10:00.137Z,67.39
2018-02-24T09:11:00.193Z,66.44
2018-02-24T09:11:59.862Z,66.06
2018-02-24T09:12:59.814Z,66.06
2018-02-24T09:14:00.021Z,65.69
2018-02-24T09:14:59.714Z,65.40
2018-02-24T09:15:59.670Z,65.88
2018-02-24T09:16:59.627Z,65.59
2018-02-24T09:17:59.883Z,66.16
2018-02-24T09:18:59.539Z,66.44
2018-02-24T09:19:59.495Z,66.50
2018-02-24T09:20:59.652Z,67.64
2018-02-24T09:21:59.406Z,67.74
2018-02-24T09:22:59.358Z,68.05
2018-02-24T09:23:59.614Z,68.02
2018-02-24T09:24:59.272Z,68.49
2018-02-24T09:25:59.226Z,68.87
2018-02-24T09:26:59.181Z,68.87
2018-02-24T09:27:59.140Z,68.96
2018-02-24T09:28:59.092Z,69.15
2018-02-24T09:29:59.344Z,68.77
2018-02-24T09:30:59.020Z,68.49
2018-02-24T09:31:59.055Z,68.96
2018-02-24T09:32:58.911Z,69.00
2018-02-24T09:33:58.946Z,68.71
2018-02-24T09:34:58.823Z,69.00
2018-02-24T09:35:59.074Z,68.43
2018-02-24T09:36:58.730Z,68.15
2018-02-24T09:37:58.685Z,68.52
2018-02-24T09:38:58.651Z,68.62
2018-02-24T09:39:58.596Z,69.44
2018-02-24T09:40:58.550Z,69.09
2018-02-24T09:41:58.804Z,69.47
2018-02-24T09:42:58.459Z,69.53
2018-02-24T09:43:58.411Z,69.19
2018-02-24T09:44:58.367Z,69.19
2018-02-24T09:45:58.325Z,68.81
2018-02-24T09:46:58.290Z,69.00
2018-02-24T09:47:58.530Z,68.62
2018-02-24T09:48:58.236Z,67.96
2018-02-24T09:49:58.139Z,68.05
2018-02-24T09:50:58.100Z,68.24
2018-02-24T09:51:58.056Z,68.24
2018-02-24T09:52:58.005Z,68.18
2018-02-24T09:53:57.959Z,68.05
2018-02-24T09:54:58.411Z,68.24
2018-02-24T09:55:57.873Z,67.96
2018-02-24T09:56:57.823Z,69.00
2018-02-24T09:57:57.778Z,68.81
2018-02-24T09:58:57.742Z,69.57
2018-02-24T09:59:57.689Z,69.76
2018-02-24T10:00:57.691Z,69.66
2018-02-24T10:01:57.897Z,69.66
2018-02-24T10:02:57.551Z,69.09
2018-02-24T10:03:57.511Z,69.57
2018-02-24T10:04:57.460Z,70.04
2018-02-24T10:05:57.417Z,69.60
2018-02-24T10:06:57.370Z,69.22
2018-02-24T10:07:57.329Z,67.99
2018-02-24T10:08:57.580Z,68.56
2018-02-24T10:09:57.239Z,67.96
2018-02-24T10:10:57.195Z,68.81
2018-02-24T10:11:57.148Z,69.41
2018-02-24T10:12:57.102Z,69.32
2018-02-24T10:13:57.055Z,68.65
2018-02-24T10:14:57.016Z,67.99
2018-02-24T10:15:57.265Z,68.56
2018-02-24T10:16:56.971Z,68.27
2018-02-24T10:17:56.880Z,68.75
2018-02-24T10:18:56.875Z,68.56
2018-02-24T10:19:56.784Z,68.75
2018-02-24T10:20:56.741Z,69.22
2018-02-24T10:21:56.697Z,69.22
2018-02-24T10:22:56.968Z,69.32
2018-02-24T10:23:56.614Z,69.60
2018-02-24T10:24:56.662Z,69.22
2018-02-24T10:25:56.514Z,70.17
2018-02-24T10:26:56.472Z,70.14
2018-02-24T10:27:56.426Z,71.31
2018-02-24T10:28:56.682Z,70.83
2018-02-24T10:29:56.343Z,70.51
2018-02-24T10:30:56.290Z,71.21
2018-02-24T10:31:56.246Z,71.17
2018-02-24T10:32:56.201Z,70.93
2018-02-24T10:33:56.161Z,70.98
2018-02-24T10:34:56.414Z,71.74
2018-02-24T10:35:56.065Z,71.27
2018-02-24T10:36:56.024Z,72.03
2018-02-24T10:37:55.976Z,72.88
2018-02-24T10:38:55.980Z,72.53
2018-02-24T10:39:55.886Z,72.82
2018-02-24T10:40:56.139Z,71.97
2018-02-24T10:41:55.796Z,72.16
2018-02-24T10:42:55.749Z,73.01
2018-02-24T10:43:55.704Z,72.92
2018-02-24T10:44:55.716Z,71.78
2018-02-24T10:45:55.617Z,71.69
2018-02-24T10:46:55.868Z,72.06
2018-02-24T10:47:55.523Z,71.78
2018-02-24T10:48:55.480Z,72.34
2018-02-24T10:49:55.435Z,71.97
2018-02-24T10:50:55.539Z,71.59
2018-02-24T10:51:55.344Z,71.50
2018-02-24T10:52:55.598Z,71.40
2018-02-24T10:53:55.252Z,71.02
2018-02-24T10:54:55.208Z,71.69
2018-02-24T10:55:55.166Z,71.21
2018-02-24T10:56:55.117Z,71.59
2018-02-24T10:57:55.071Z,71.50
2018-02-24T10:59:55.293Z,71.12
2018-02-24T11:00:54.938Z,71.50
2018-02-24T11:01:55.197Z,71.78
2018-02-24T11:02:54.858Z,71.59
2018-02-24T11:03:54.808Z,71.21
2018-02-24T11:04:54.759Z,71.21
2018-02-24T11:05:54.733Z,71.69
2018-02-24T11:06:54.969Z,71.69
2018-02-24T11:07:54.676Z,71.69
2018-02-24T11:08:54.580Z,71.69
2018-02-24T11:09:54.536Z,71.21
2018-02-24T11:10:54.493Z,71.40
2018-02-24T11:11:54.451Z,71.31
2018-02-24T11:12:54.408Z,71.21
2018-02-24T11:13:54.702Z,70.93
2018-02-24T11:15:07.058Z,71.02
2018-02-24T11:15:54.770Z,71.12
2018-02-24T11:16:54.232Z,69.45
2018-02-24T11:17:54.180Z,68.25
2018-02-24T11:18:54.134Z,66.07
2018-02-24T11:19:54.091Z,66.64
2018-02-24T11:20:54.348Z,65.50
2018-02-24T11:21:54.016Z,65.28
2018-02-24T11:22:53.973Z,66.03
2018-02-24T11:23:53.918Z,67.24
2018-02-24T11:24:53.874Z,68.46
2018-02-24T11:25:53.831Z,68.31
2018-02-24T11:26:53.792Z,66.74
2018-02-24T11:27:54.041Z,65.50
2018-02-24T11:29:26.912Z,65.22
2018-02-24T11:29:53.659Z,65.41
2018-02-24T11:30:54.011Z,65.75
2018-02-24T11:31:53.571Z,66.22
2018-02-24T11:32:53.529Z,67.18
2018-02-24T11:33:53.484Z,67.55
2018-02-24T11:34:53.740Z,66.41
2018-02-24T11:35:53.455Z,67.46
2018-02-24T11:36:53.354Z,66.70
2018-02-24T11:37:53.312Z,66.51
2018-02-24T11:38:53.272Z,66.80
2018-02-24T11:39:53.229Z,66.22
2018-02-24T11:40:53.477Z,66.20
2018-02-24T11:41:53.135Z,63.79
2018-02-24T11:42:53.194Z,63.60
2018-02-24T11:44:38.998Z,63.98
2018-02-24T11:44:53.006Z,64.08
2018-02-24T11:45:52.962Z,63.35
2018-02-24T11:46:52.921Z,61.77
2018-02-24T11:47:52.879Z,60.85
2018-02-24T11:48:52.832Z,59.75
2018-02-24T11:49:52.793Z,61.93
2018-02-24T11:50:52.746Z,61.83
2018-02-24T11:51:52.704Z,63.17
2018-02-24T11:52:52.981Z,62.59
2018-02-24T11:53:52.618Z,63.51
2018-02-24T11:54:52.575Z,64.14
2018-02-24T11:55:52.535Z,65.28
2018-02-24T11:56:52.494Z,65.72
2018-02-24T11:57:52.454Z,67.36
2018-02-24T11:58:52.718Z,67.83
2018-02-24T11:59:52.367Z,67.65
2018-02-24T12:00:52.322Z,67.08
2018-02-24T12:01:52.274Z,66.60
2018-02-24T12:02:52.232Z,66.41
2018-02-24T12:03:52.189Z,66.13
2018-02-24T12:04:52.452Z,66.70
2018-02-24T12:05:52.099Z,66.07
2018-02-24T12:06:52.058Z,64.30
2018-02-24T12:07:52.016Z,63.67
2018-02-24T12:08:51.973Z,64.14
2018-02-24T12:09:51.928Z,65.28
2018-02-24T12:10:52.183Z,65.91
2018-02-24T12:11:52.147Z,65.81
2018-02-24T12:12:51.799Z,66.00
2018-02-24T12:13:51.756Z,66.38
2018-02-24T12:14:51.714Z,66.28
2018-02-24T12:15:51.665Z,66.67
2018-02-24T12:16:51.620Z,66.76
2018-02-24T12:17:52.024Z,67.14
2018-02-24T12:18:51.531Z,67.80
2018-02-24T12:19:51.485Z,68.18
2018-02-24T12:20:51.443Z,67.90
2018-02-24T12:21:51.402Z,67.90
2018-02-24T12:22:51.351Z,67.49
2018-02-24T12:23:51.509Z,65.37
2018-02-24T12:24:51.566Z,64.61
2018-02-24T12:25:51.227Z,64.81
2018-02-24T12:26:51.176Z,65.34
2018-02-24T12:27:51.131Z,65.63
2018-02-24T12:28:51.092Z,66.00
2018-02-24T12:29:51.048Z,65.81
2018-02-24T12:30:51.003Z,65.72
2018-02-24T12:31:51.253Z,65.81
2018-02-24T12:32:50.962Z,65.72
2018-02-24T12:33:50.861Z,66.38
2018-02-24T12:34:51.021Z,65.63
2018-02-24T12:35:50.821Z,65.91
2018-02-24T12:36:50.736Z,66.09
2018-02-24T12:37:50.781Z,66.76
2018-02-24T12:39:10.140Z,66.47
2018-02-24T12:39:50.591Z,65.81
2018-02-24T12:40:50.596Z,65.25
2018-02-24T12:41:50.498Z,65.15
2018-02-24T12:42:50.605Z,64.87
2018-02-24T12:43:50.712Z,64.39
2018-02-24T12:44:50.367Z,64.11
2018-02-24T12:45:50.765Z,65.25
2018-02-24T12:46:50.420Z,64.27
2018-02-24T12:47:50.227Z,62.28
2018-02-24T12:48:50.182Z,61.99
2018-02-24T12:49:50.134Z,60.53
2018-02-24T12:50:50.091Z,57.82
2018-02-24T12:51:50.047Z,59.41
2018-02-24T12:52:50.411Z,59.37
2018-02-24T12:53:49.966Z,57.34
2018-02-24T12:54:49.915Z,55.57